createdAt,value
2018-04-02T00:02:01.404Z,8.60
2018-04-02T00:04:28.920Z,8.50
2018-04-02T00:06:56.451Z,8.93
2018-04-02T00:09:24.722Z,9.37
2018-04-02T00:11:53.019Z,9.67
2018-04-02T00:14:21.314Z,9.50
2018-04-02T00:16:48.819Z,9.97
2018-04-02T00:19:16.310Z,9.33
2018-04-02T00:21:44.646Z,9.70
2018-04-02T00:24:12.165Z,10.07
2018-04-02T00:26:40.438Z,9.23
2018-04-02T00:29:08.774Z,10.67
2018-04-02T00:31:36.288Z,9.73
2018-04-02T00:34:04.569Z,10.30
2018-04-02T00:36:32.875Z,9.90
2018-04-02T00:39:00.393Z,10.03
2018-04-02T00:41:27.966Z,10.63
2018-04-02T00:43:56.286Z,10.80
2018-04-02T00:46:23.786Z,10.60
2018-04-02T00:48:51.316Z,11.33
2018-04-02T00:51:18.870Z,11.47
2018-04-02T00:53:46.555Z,12.30
2018-04-02T00:56:14.089Z,12.13
2018-04-02T00:58:42.395Z,12.33
2018-04-02T01:01:09.925Z,12.73
2018-04-02T01:03:38.227Z,13.10
2018-04-02T01:06:05.762Z,11.87
2018-04-02T01:08:34.034Z,12.20
2018-04-02T01:11:03.094Z,14.17
2018-04-02T01:13:30.623Z,12.47
2018-04-02T01:15:58.899Z,13.30
2018-04-02T01:18:27.209Z,14.20
2018-04-02T01:20:54.727Z,13.50
2018-04-02T01:23:23.002Z,12.97
2018-04-02T01:25:50.535Z,13.50
2018-04-02T01:28:18.063Z,13.70
2018-04-02T01:30:46.370Z,13.57
2018-04-02T01:33:13.886Z,14.17
2018-04-02T01:35:42.928Z,12.97
2018-04-02T01:38:10.451Z,13.63
2018-04-02T01:40:38.749Z,14.07
2018-04-02T01:43:07.084Z,13.10
2018-04-02T01:45:34.591Z,13.33
2018-04-02T01:48:02.870Z,13.07
2018-04-02T01:50:31.197Z,12.57
2018-04-02T01:52:58.734Z,14.30
2018-04-02T01:55:26.363Z,13.83
2018-04-02T01:57:55.423Z,13.40
2018-04-02T02:00:22.932Z,14.20
2018-04-02T02:02:51.219Z,14.17
2018-04-02T02:05:18.767Z,13.27
2018-04-02T02:07:46.277Z,12.90
2018-04-02T02:10:13.790Z,14.60
2018-04-02T02:12:41.356Z,13.00
2018-04-02T02:15:08.875Z,13.33
2018-04-02T02:17:37.186Z,15.10
2018-04-02T02:20:04.710Z,14.83
2018-04-02T02:22:32.271Z,13.73
2018-04-02T02:25:00.575Z,13.27
2018-04-02T02:27:28.102Z,13.30
2018-04-02T02:29:56.379Z,13.30
2018-04-02T02:32:24.657Z,14.07
2018-04-02T02:34:52.950Z,15.53
2018-04-02T02:37:21.232Z,13.57
2018-04-02T02:39:49.538Z,15.00
2018-04-02T02:42:17.083Z,15.23
2018-04-02T02:44:44.599Z,14.50
2018-04-02T02:47:12.103Z,15.60
2018-04-02T02:49:40.538Z,15.57
2018-04-02T02:52:08.048Z,15.80
2018-04-02T02:54:36.414Z,15.83
2018-04-02T02:57:04.099Z,16.13
2018-04-02T02:59:32.383Z,15.43
2018-04-02T03:02:00.668Z,16.10
2018-04-02T03:04:28.226Z,17.77
2018-04-02T03:06:56.532Z,18.17
2018-04-02T03:09:24.094Z,17.40
2018-04-02T03:11:51.638Z,18.53
2018-04-02T03:14:19.919Z,18.83
2018-04-02T03:16:48.197Z,18.47
2018-04-02T03:19:16.551Z,21.10
2018-04-02T03:21:44.073Z,19.17
2018-04-02T03:24:11.582Z,19.37
2018-04-02T03:26:39.123Z,18.30
2018-04-02T03:29:06.634Z,18.70
2018-04-02T03:31:34.913Z,18.13
2018-04-02T03:34:03.235Z,18.33
2018-04-02T03:36:30.754Z,16.27
2018-04-02T03:38:59.043Z,20.33
2018-04-02T03:41:27.356Z,17.17
2018-04-02T03:43:54.886Z,16.60
2018-04-02T03:46:22.394Z,17.10
2018-04-02T03:48:49.939Z,18.73
2018-04-02T03:51:17.458Z,16.97
2018-04-02T03:53:44.973Z,18.43
2018-04-02T03:56:12.522Z,17.43
2018-04-02T03:58:40.879Z,17.47
2018-04-02T04:01:09.166Z,17.33
2018-04-02T04:03:37.482Z,19.27
2018-04-02T04:06:05.011Z,18.30
2018-04-02T04:08:33.458Z,19.47
2018-04-02T04:11:00.982Z,16.40
2018-04-02T04:13:29.257Z,17.57
2018-04-02T04:15:57.694Z,17.17
2018-04-02T04:18:25.252Z,17.00
2018-04-02T04:20:52.782Z,16.73
2018-04-02T04:23:20.323Z,18.20
2018-04-02T04:25:48.642Z,18.13
2018-04-02T04:28:16.146Z,17.80
2018-04-02T04:30:43.692Z,17.97
2018-04-02T04:33:11.214Z,17.43
2018-04-02T04:35:39.498Z,18.20
2018-04-02T04:38:07.775Z,19.57
2018-04-02T04:40:36.183Z,19.20
2018-04-02T04:43:03.720Z,17.47
2018-04-02T04:45:32.025Z,16.27
2018-04-02T04:47:59.552Z,15.90
2018-04-02T04:50:27.827Z,18.73
2018-04-02T04:52:56.850Z,17.23
2018-04-02T04:55:25.140Z,16.70
2018-04-02T04:57:52.655Z,14.93
2018-04-02T05:00:20.242Z,17.07
2018-04-02T05:02:48.530Z,14.53
2018-04-02T05:05:16.813Z,15.17
2018-04-02T05:07:44.375Z,14.53
2018-04-02T05:10:12.704Z,15.50
2018-04-02T05:12:41.155Z,13.57
2018-04-02T05:15:08.686Z,16.63
2018-04-02T05:17:36.252Z,15.10
2018-04-02T05:20:05.270Z,14.57
2018-04-02T05:22:32.794Z,15.40
2018-04-02T05:25:00.354Z,14.83
2018-04-02T05:27:27.876Z,14.30
2018-04-02T05:29:56.329Z,14.30
2018-04-02T05:32:23.888Z,14.97
2018-04-02T05:34:51.407Z,15.07
2018-04-02T05:37:18.970Z,15.67
2018-04-02T05:39:46.539Z,14.50
2018-04-02T05:42:14.078Z,15.50
2018-04-02T05:44:42.343Z,14.20
2018-04-02T05:47:10.642Z,13.83
2018-04-02T05:49:38.969Z,14.97
2018-04-02T05:52:06.495Z,14.07
2018-04-02T05:54:34.058Z,14.80
2018-04-02T05:57:01.589Z,16.63
2018-04-02T05:59:29.098Z,14.57
2018-04-02T06:01:56.875Z,13.47
2018-04-02T06:04:24.407Z,14.63
2018-04-02T06:06:51.927Z,14.03
2018-04-02T06:09:19.441Z,14.30
2018-04-02T06:11:47.722Z,14.53
2018-04-02T06:14:15.996Z,14.17
2018-04-02T06:16:44.315Z,13.90
2018-04-02T06:19:11.834Z,13.10
2018-04-02T06:21:40.105Z,13.70
2018-04-02T06:24:13.473Z,14.03
2018-04-02T06:26:42.290Z,13.90
2018-04-02T06:29:09.831Z,13.87
2018-04-02T06:31:37.425Z,13.67
2018-04-02T06:34:05.719Z,14.43
2018-04-02T06:36:34.034Z,14.00
2018-04-02T06:39:01.770Z,13.90
2018-04-02T06:41:29.322Z,13.67
2018-04-02T06:43:56.850Z,15.50
2018-04-02T06:46:24.413Z,13.70
2018-04-02T06:48:52.790Z,13.87
2018-04-02T06:51:20.312Z,13.10
2018-04-02T06:53:48.598Z,12.90
2018-04-02T06:56:16.927Z,13.57
2018-04-02T06:58:45.234Z,13.93
2018-04-02T07:01:13.718Z,13.53
2018-04-02T07:03:41.290Z,13.23
2018-04-02T07:06:08.909Z,14.20
2018-04-02T07:08:36.453Z,14.07
2018-04-02T07:11:04.020Z,14.23
2018-04-02T07:13:32.312Z,14.27
2018-04-02T07:16:01.076Z,13.57
2018-04-02T07:18:28.683Z,12.97
2018-04-02T07:20:56.240Z,15.07
2018-04-02T07:23:23.768Z,14.20
2018-04-02T07:25:52.076Z,15.27
2018-04-02T07:28:19.671Z,15.17
2018-04-02T07:30:47.371Z,14.47
2018-04-02T07:33:14.879Z,14.23
2018-04-02T07:35:42.504Z,13.47
2018-04-02T07:38:11.592Z,14.67
2018-04-02T07:40:39.315Z,13.93
2018-04-02T07:43:06.921Z,14.03
2018-04-02T07:45:34.439Z,12.23
2018-04-02T07:48:01.959Z,12.50
2018-04-02T07:50:31.095Z,13.67
2018-04-02T07:52:59.419Z,13.43
2018-04-02T07:55:26.959Z,12.17
2018-04-02T07:57:54.492Z,13.53
2018-04-02T08:00:22.042Z,13.53
2018-04-02T08:02:49.627Z,12.40
2018-04-02T08:05:17.986Z,13.77
2018-04-02T08:07:47.017Z,11.90
2018-04-02T08:10:14.641Z,12.87
2018-04-02T08:12:42.173Z,13.07
2018-04-02T08:15:09.726Z,12.63
2018-04-02T08:17:37.239Z,13.77
2018-04-02T08:20:04.775Z,13.50
2018-04-02T08:22:32.295Z,12.43
2018-04-02T08:25:00.586Z,12.47
2018-04-02T08:27:28.144Z,12.83
2018-04-02T08:29:56.414Z,14.20
2018-04-02T08:32:24.700Z,13.63
2018-04-02T08:34:52.814Z,13.00
2018-04-02T08:37:20.314Z,14.03
2018-04-02T08:39:49.410Z,13.80
2018-04-02T08:42:17.027Z,14.83
2018-04-02T08:44:45.108Z,13.20
2018-04-02T08:47:12.761Z,15.17
2018-04-02T08:49:40.363Z,12.50
2018-04-02T08:52:07.929Z,14.00
2018-04-02T08:54:35.622Z,14.57
2018-04-02T08:57:04.057Z,13.03
2018-04-02T08:59:32.028Z,12.23
2018-04-02T09:01:59.696Z,12.20
2018-04-02T09:04:27.295Z,11.50
2018-04-02T09:06:54.949Z,11.47
2018-04-02T09:09:22.616Z,10.97
2018-04-02T09:11:50.628Z,10.83
2018-04-02T09:14:18.449Z,10.47
2018-04-02T09:16:47.132Z,11.50
2018-04-02T09:19:14.980Z,10.80
2018-04-02T09:21:42.657Z,10.10
2018-04-02T09:24:10.232Z,10.20
2018-04-02T09:26:37.865Z,8.63
2018-04-02T09:29:06.168Z,8.23
2018-04-02T09:31:34.438Z,8.50
2018-04-02T09:34:02.747Z,8.40
2018-04-02T09:36:30.275Z,8.47
2018-04-02T09:38:58.550Z,9.20
2018-04-02T09:41:26.856Z,8.07
2018-04-02T09:43:55.134Z,9.10
2018-04-02T09:46:23.410Z,7.73
2018-04-02T09:48:51.720Z,7.40
2018-04-02T09:51:19.251Z,9.37
2018-04-02T09:53:46.783Z,11.53
2018-04-02T09:56:15.827Z,8.00
2018-04-02T09:58:46.027Z,8.77
2018-04-02T10:01:14.314Z,8.67
2018-04-02T10:03:48.415Z,8.60
2018-04-02T10:06:15.930Z,7.67
2018-04-02T10:08:43.544Z,8.02
2018-04-02T10:11:11.901Z,8.07
2018-04-02T10:13:39.420Z,7.07
2018-04-02T10:16:07.732Z,6.70
2018-04-02T10:18:35.288Z,7.07
2018-04-02T10:21:02.807Z,7.62
2018-04-02T10:23:31.098Z,7.22
2018-04-02T10:25:59.394Z,7.00
2018-04-02T10:28:27.684Z,7.57
2018-04-02T10:30:55.198Z,7.45
2018-04-02T10:33:22.726Z,7.35
2018-04-02T10:35:50.226Z,6.62
2018-04-02T10:38:17.751Z,7.93
2018-04-02T10:40:45.276Z,6.75
2018-04-02T10:43:12.824Z,6.80
2018-04-02T10:45:40.320Z,5.75
2018-04-02T10:48:07.851Z,5.95
2018-04-02T10:50:35.370Z,5.90
2018-04-02T10:53:02.904Z,6.43
2018-04-02T10:55:31.211Z,6.53
2018-04-02T10:57:58.777Z,5.90
2018-04-02T11:00:26.283Z,5.20
2018-04-02T11:02:53.810Z,5.53
2018-04-02T11:05:21.370Z,5.80
2018-04-02T11:07:48.890Z,6.18
2018-04-02T11:10:16.567Z,5.35
2018-04-02T11:12:44.846Z,6.18
2018-04-02T11:15:12.351Z,6.30
2018-04-02T11:17:40.460Z,5.32
2018-04-02T11:20:07.962Z,5.30
2018-04-02T11:22:36.241Z,5.25
2018-04-02T11:25:04.569Z,5.70
2018-04-02T11:27:32.098Z,5.85
2018-04-02T11:29:59.627Z,4.93
2018-04-02T11:32:27.983Z,5.07
2018-04-02T11:34:55.495Z,4.05
2018-04-02T11:37:23.770Z,5.90
2018-04-02T11:39:52.095Z,5.35
2018-04-02T11:42:19.602Z,5.53
2018-04-02T11:44:48.635Z,5.68
2018-04-02T11:47:16.970Z,5.47
2018-04-02T11:49:44.470Z,5.18
2018-04-02T11:52:12.751Z,5.35
2018-04-02T11:54:41.080Z,6.07
2018-04-02T11:57:08.593Z,6.07
2018-04-02T11:59:36.878Z,5.75
2018-04-02T12:02:05.325Z,6.15
2018-04-02T12:04:32.831Z,6.22
2018-04-02T12:07:01.105Z,5.75
2018-04-02T12:09:29.403Z,5.78
2018-04-02T12:11:56.970Z,6.28
2018-04-02T12:14:24.470Z,5.55
2018-04-02T12:16:52.011Z,5.50
2018-04-02T12:19:19.518Z,5.72
2018-04-02T12:21:47.028Z,6.07
2018-04-02T12:24:14.554Z,6.22
2018-04-02T12:26:42.061Z,7.05
2018-04-02T12:29:09.601Z,5.97
2018-04-02T12:31:37.907Z,6.07
2018-04-02T12:34:05.410Z,6.72
2018-04-02T12:36:32.922Z,7.37
2018-04-02T12:39:00.469Z,6.10
2018-04-02T12:41:28.738Z,6.35
2018-04-02T12:43:57.026Z,6.40
2018-04-02T12:46:25.344Z,5.97
2018-04-02T12:48:52.848Z,5.80
2018-04-02T12:51:20.363Z,5.30
2018-04-02T12:53:47.894Z,5.35
2018-04-02T12:56:16.207Z,4.82
2018-04-02T12:58:43.793Z,4.70
2018-04-02T13:01:11.318Z,5.47
2018-04-02T13:03:39.612Z,4.93
2018-04-02T13:06:07.882Z,5.10
2018-04-02T13:08:36.171Z,5.10
2018-04-02T13:11:04.438Z,4.47
2018-04-02T13:13:32.844Z,4.57
2018-04-02T13:16:00.396Z,5.22
2018-04-02T13:18:28.667Z,5.12
2018-04-02T13:20:56.940Z,3.55
2018-04-02T13:23:24.467Z,4.07
2018-04-02T13:25:51.966Z,4.15
2018-04-02T13:28:19.467Z,4.25
2018-04-02T13:30:47.012Z,4.20
2018-04-02T13:33:15.290Z,3.53
2018-04-02T13:35:43.566Z,3.90
2018-04-02T13:38:11.116Z,3.53
2018-04-02T13:40:38.636Z,3.65
2018-04-02T13:43:06.145Z,3.25
2018-04-02T13:45:33.739Z,3.33
2018-04-02T13:48:02.039Z,3.17
2018-04-02T13:50:29.555Z,3.33
2018-04-02T13:52:58.603Z,3.72
2018-04-02T13:55:26.115Z,3.72
2018-04-02T13:57:54.387Z,4.25
2018-04-02T14:00:21.910Z,3.60
2018-04-02T14:02:49.411Z,4.50
2018-04-02T14:05:20.417Z,4.22
2018-04-02T14:07:48.238Z,4.00
2018-04-02T14:10:16.584Z,4.27
2018-04-02T14:12:44.092Z,3.50
2018-04-02T14:15:11.707Z,3.83
2018-04-02T14:17:39.206Z,4.00
2018-04-02T14:20:06.762Z,3.97
2018-04-02T14:22:34.299Z,4.87
2018-04-02T14:25:01.824Z,4.70
2018-04-02T14:27:30.115Z,5.73
2018-04-02T14:29:57.720Z,3.90
2018-04-02T14:32:25.231Z,3.40
2018-04-02T14:34:53.507Z,3.53
2018-04-02T14:37:21.044Z,3.93
2018-04-02T14:39:48.576Z,3.37
2018-04-02T14:42:16.114Z,5.50
2018-04-02T14:44:44.442Z,3.20
2018-04-02T14:47:11.990Z,3.00
2018-04-02T14:49:39.512Z,3.20
2018-04-02T14:52:07.112Z,3.90
2018-04-02T14:54:34.642Z,3.80
2018-04-02T14:57:02.357Z,3.73
2018-04-02T14:59:29.914Z,3.43
2018-04-02T15:01:57.551Z,3.30
2018-04-02T15:04:25.173Z,4.30
2018-04-02T15:06:52.700Z,2.80
2018-04-02T15:09:20.223Z,3.77
2018-04-02T15:11:47.743Z,4.87
2018-04-02T15:14:15.281Z,3.43
2018-04-02T15:16:43.760Z,4.50
2018-04-02T15:19:12.101Z,3.27
2018-04-02T15:21:39.635Z,3.13
2018-04-02T15:24:07.783Z,3.30
2018-04-02T15:26:38.684Z,3.83
2018-04-02T15:29:06.315Z,3.23
2018-04-02T15:31:33.912Z,3.97
2018-04-02T15:34:01.440Z,2.67
2018-04-02T15:36:28.972Z,2.40
2018-04-02T15:38:56.506Z,2.30
2018-04-02T15:41:24.037Z,2.07
2018-04-02T15:43:51.579Z,2.10
2018-04-02T15:46:19.888Z,2.87
2018-04-02T15:48:47.458Z,2.33
2018-04-02T15:51:15.007Z,2.37
2018-04-02T15:53:42.616Z,2.60
2018-04-02T15:56:10.167Z,1.87
2018-04-02T15:58:37.726Z,4.47
2018-04-02T16:01:05.334Z,2.73
2018-04-02T16:03:32.815Z,2.47
2018-04-02T16:06:01.225Z,3.33
2018-04-02T16:08:28.748Z,2.73
2018-04-02T16:10:57.024Z,2.63
2018-04-02T16:13:24.606Z,2.40
2018-04-02T16:15:52.926Z,2.47
2018-04-02T16:18:20.745Z,2.30
2018-04-02T16:20:49.139Z,2.70
2018-04-02T16:23:17.419Z,2.40
2018-04-02T16:25:45.715Z,2.07
2018-04-02T16:28:14.011Z,2.30
2018-04-02T16:30:41.655Z,1.87
2018-04-02T16:33:09.936Z,2.03
2018-04-02T16:35:38.285Z,2.50
2018-04-02T16:38:05.877Z,1.97
2018-04-02T16:40:34.154Z,2.30
2018-04-02T16:43:02.495Z,3.40
2018-04-02T16:45:30.128Z,6.73
2018-04-02T16:47:57.664Z,3.50
2018-04-02T16:50:25.218Z,3.43
2018-04-02T16:52:52.730Z,3.70
2018-04-02T16:55:20.566Z,3.47
2018-04-02T16:57:48.894Z,3.03
2018-04-02T17:00:16.402Z,4.27
2018-04-02T17:02:44.687Z,2.83
2018-04-02T17:05:12.214Z,5.00
2018-04-02T17:07:39.724Z,2.60
2018-04-02T17:10:08.026Z,2.77
2018-04-02T17:12:35.554Z,2.87
2018-04-02T17:15:03.840Z,3.87
2018-04-02T17:17:32.163Z,3.27
2018-04-02T17:19:59.767Z,2.80
2018-04-02T17:22:27.284Z,2.20
2018-04-02T17:24:54.806Z,2.50
2018-04-02T17:27:22.375Z,2.70
2018-04-02T17:29:49.890Z,2.43
2018-04-02T17:32:17.397Z,2.10
2018-04-02T17:34:46.442Z,3.53
2018-04-02T17:37:13.966Z,2.17
2018-04-02T17:39:42.242Z,2.57
2018-04-02T17:42:10.550Z,2.77
2018-04-02T17:44:38.128Z,4.00
2018-04-02T17:47:05.677Z,28.03
2018-04-02T17:49:33.985Z,10.63
2018-04-02T17:52:01.508Z,6.20
2018-04-02T17:54:29.802Z,3.83
2018-04-02T17:56:58.127Z,3.80
2018-04-02T17:59:25.650Z,4.30
2018-04-02T18:01:53.923Z,4.13
2018-04-02T18:04:21.446Z,3.50
2018-04-02T18:06:49.032Z,3.60
2018-04-02T18:09:16.567Z,3.47
2018-04-02T18:11:44.365Z,3.60
2018-04-02T18:14:11.887Z,3.70
2018-04-02T18:16:39.434Z,3.20
2018-04-02T18:19:06.979Z,3.47
2018-04-02T18:21:35.330Z,3.03
2018-04-02T18:24:03.781Z,3.90
2018-04-02T18:26:31.322Z,2.63
2018-04-02T18:28:58.822Z,3.20
2018-04-02T18:31:26.334Z,3.13
2018-04-02T18:33:53.867Z,2.50
2018-04-02T18:36:21.370Z,3.10
2018-04-02T18:38:49.676Z,3.07
2018-04-02T18:41:17.220Z,3.60
2018-04-02T18:43:45.498Z,3.10
2018-04-02T18:46:13.774Z,3.53
2018-04-02T18:48:41.319Z,4.13
2018-04-02T18:51:08.860Z,4.30
2018-04-02T18:53:36.386Z,3.87
2018-04-02T18:56:03.984Z,3.60
2018-04-02T18:58:31.479Z,3.47
2018-04-02T19:00:58.990Z,3.87
2018-04-02T19:03:26.576Z,3.50
2018-04-02T19:05:54.826Z,3.83
2018-04-02T19:08:23.098Z,4.43
2018-04-02T19:10:51.401Z,5.80
2018-04-02T19:13:18.913Z,3.87
2018-04-02T19:15:46.429Z,4.00
2018-04-02T19:18:13.962Z,4.60
2018-04-02T19:20:42.238Z,4.20
2018-04-02T19:23:09.874Z,5.00
2018-04-02T19:25:37.399Z,5.07
2018-04-02T19:28:04.906Z,4.77
2018-04-02T19:30:32.446Z,4.90
2018-04-02T19:32:59.991Z,4.83
2018-04-02T19:35:27.516Z,6.00
2018-04-02T19:37:55.039Z,5.53
2018-04-02T19:42:50.362Z,4.77
2018-04-02T19:45:17.907Z,5.40
2018-04-02T19:47:46.180Z,5.17
2018-04-02T19:50:14.474Z,6.03
2018-04-02T19:52:42.009Z,5.83
2018-04-02T19:55:10.294Z,6.20
2018-04-02T19:57:37.818Z,6.20
2018-04-02T20:00:05.339Z,6.83
2018-04-02T20:02:33.614Z,6.73
2018-04-02T20:05:01.920Z,6.17
2018-04-02T20:07:29.477Z,6.00
2018-04-02T20:09:57.755Z,6.40
2018-04-02T20:12:25.282Z,6.30
2018-04-02T20:14:53.553Z,5.90
2018-04-02T20:17:21.073Z,6.03
2018-04-02T20:19:48.602Z,6.93
2018-04-02T20:22:16.138Z,5.90
2018-04-02T20:24:43.882Z,5.50
2018-04-02T20:27:11.411Z,6.50
2018-04-02T20:29:39.683Z,5.53
2018-04-02T20:32:07.182Z,5.33
2018-04-02T20:34:34.714Z,5.70
2018-04-02T20:37:02.982Z,5.70
2018-04-02T20:39:31.301Z,6.50
2018-04-02T20:41:59.573Z,6.33
2018-04-02T20:44:27.838Z,6.47
2018-04-02T20:46:56.150Z,6.43
2018-04-02T20:49:23.679Z,6.00
2018-04-02T20:51:51.965Z,5.90
2018-04-02T20:54:20.246Z,6.17
2018-04-02T20:56:48.542Z,6.57
2018-04-02T20:59:16.815Z,6.57
2018-04-02T21:01:45.091Z,5.80
2018-04-02T21:04:13.397Z,6.17
2018-04-02T21:06:40.890Z,6.47
2018-04-02T21:09:08.407Z,5.83
2018-04-02T21:11:36.718Z,5.63
2018-04-02T21:14:04.225Z,5.87
2018-04-02T21:16:32.515Z,7.40
2018-04-02T21:19:00.824Z,7.40
2018-04-02T21:21:29.150Z,5.97
2018-04-02T21:23:56.663Z,6.53
2018-04-02T21:26:25.007Z,7.37
2018-04-02T21:28:52.510Z,7.10
2018-04-02T21:31:20.774Z,6.33
2018-04-02T21:33:49.059Z,6.23
2018-04-02T21:36:16.581Z,6.60
2018-04-02T21:38:44.099Z,6.13
2018-04-02T21:41:12.383Z,5.87
2018-04-02T21:43:40.680Z,5.27
2018-04-02T21:46:08.183Z,5.50
2018-04-02T21:48:36.742Z,5.60
2018-04-02T21:51:04.280Z,5.73
2018-04-02T21:53:32.542Z,5.80
2018-04-02T21:56:00.834Z,6.00
2018-04-02T21:58:29.115Z,7.37
2018-04-02T22:00:57.401Z,5.93
2018-04-02T22:03:25.699Z,5.20
2018-04-02T22:05:53.194Z,5.47
2018-04-02T22:08:20.716Z,5.53
2018-04-02T22:10:49.023Z,4.80
2018-04-02T22:13:16.528Z,5.57
2018-04-02T22:15:44.051Z,6.40
2018-04-02T22:18:11.687Z,5.33
2018-04-02T22:20:39.955Z,4.87
2018-04-02T22:23:08.231Z,4.83
2018-04-02T22:25:35.776Z,5.93
2018-04-02T22:28:03.347Z,5.20
2018-04-02T22:30:30.864Z,5.13
2018-04-02T22:32:58.394Z,4.73
2018-04-02T22:35:26.666Z,5.47
2018-04-02T22:37:54.950Z,5.20
2018-04-02T22:40:23.255Z,5.33
2018-04-02T22:42:52.723Z,5.20
2018-04-02T22:45:20.233Z,5.10
2018-04-02T22:47:47.770Z,6.73
2018-04-02T22:50:16.048Z,4.70
2018-04-02T22:52:43.543Z,6.10
2018-04-02T22:55:11.070Z,5.90
2018-04-02T22:57:38.613Z,7.30
2018-04-02T23:00:06.124Z,5.00
2018-04-02T23:02:33.662Z,6.47
2018-04-02T23:05:01.937Z,5.00
2018-04-02T23:07:30.225Z,5.23
2018-04-02T23:09:58.539Z,6.17
2018-04-02T23:12:26.067Z,5.60
2018-04-02T23:14:54.447Z,6.40
2018-04-02T23:17:22.742Z,6.33
2018-04-02T23:19:50.286Z,7.47
2018-04-02T23:22:29.751Z,5.53
2018-04-02T23:24:58.025Z,5.90
2018-04-02T23:27:26.297Z,5.53
2018-04-02T23:29:54.711Z,5.60
2018-04-02T23:32:22.238Z,7.03
2018-04-02T23:34:49.757Z,5.07
2018-04-02T23:37:17.278Z,6.37
2018-04-02T23:39:45.599Z,6.27
2018-04-02T23:42:13.111Z,6.03
2018-04-02T23:44:40.651Z,5.83
2018-04-02T23:47:08.193Z,7.27
2018-04-02T23:49:35.696Z,5.30
2018-04-02T23:52:03.226Z,6.07
2018-04-02T23:54:30.762Z,5.67
2018-04-02T23:56:59.043Z,5.70
2018-04-02T23:59:27.340Z,6.97
